Ash, North Carolina
Current Conditions -  °F | °C
As of 9:53 PM on Thursday 20 Nov 2014 (Local Time) from KCRE Reporting Station
Clear Clear  
Wind Chill: 12°   Ceiling: Unl
Heat Index: 12°   Visibility: 10mi
Dew Point:   Wind: 10mph
Humidity: 51%   Direction: 240°WSW
Pressure: 30.18"   Gusts: NA
Location:  34.04°N, 78.52°W
Report Text: KCRE 210253Z 24009KT 10SM CLR 12/02 A3018 RMK AO1 SLP222 T01220022 51013
Loading
Personal Weather Stations






























Interactive Weather Map New forecast layout! Learn more

10-Day Weather Forecast

Advertisements
Track Severe Weather on mobile